Time;durP1;ratioP1;P1;durP2;ratioP2;P2;SDS_P1;SDS_P2;PMS_P1;PMS_P2;Temp;Humidity;BMP_temperature;BMP_pressure;BME280_temperature;BME280_humidity;BME280_pressure;Samples;Min_cycle;Max_cycle;Signal;HPM_P1;HPM_P2
2021/07/05 00:01:41;;;;;;;3.78;3.40;;;;;;;22.55;54.41;100777.56;6212989;28;20241;-66
2021/07/05 00:05:02;;;;;;;3.63;3.35;;;;;;;22.42;54.85;100777.44;6217329;28;20622;-66
2021/07/05 00:08:23;;;;;;;3.47;3.28;;;;;;;22.47;54.81;100769.22;6202717;28;20241;-65
2021/07/05 00:11:44;;;;;;;4.70;4.10;;;;;;;22.57;54.82;100772.16;6208677;28;20237;-65
2021/07/05 00:15:07;;;;;;;4.40;4.10;;;;;;;22.32;55.69;100773.63;6216677;28;20633;-65
2021/07/05 00:18:29;;;;;;;4.20;3.80;;;;;;;22.17;55.70;100777.97;6212993;28;20268;-65
2021/07/05 00:21:51;;;;;;;5.07;4.60;;;;;;;21.45;57.78;100781.22;6205612;28;20225;-65
2021/07/05 00:25:12;;;;;;;4.88;4.45;;;;;;;21.62;57.38;100774.06;6217194;28;20229;-65
2021/07/05 00:28:33;;;;;;;4.63;4.22;;;;;;;21.87;56.75;100777.97;6193048;28;20319;-65
2021/07/05 00:31:54;;;;;;;4.35;3.95;;;;;;;21.53;57.79;100771.91;6213880;28;20618;-65
2021/07/05 00:35:19;;;;;;;4.10;3.72;;;;;;;21.45;58.25;100783.88;6208052;28;20232;-65
2021/07/05 00:38:41;;;;;;;4.80;4.40;;;;;;;21.47;58.42;100777.56;6202437;28;20229;-65
2021/07/05 00:42:02;;;;;;;4.85;4.45;;;;;;;21.77;57.57;100759.09;6216719;28;20244;-66
2021/07/05 00:45:24;;;;;;;5.05;4.65;;;;;;;22.11;56.35;100762.44;6213697;28;20308;-65
2021/07/05 00:48:45;;;;;;;4.63;4.32;;;;;;;22.31;56.11;100763.94;6204312;28;20233;-65
2021/07/05 00:52:08;;;;;;;4.00;3.70;;;;;;;22.38;56.25;100764.44;6202971;28;20237;-65
2021/07/05 00:55:32;;;;;;;4.78;4.38;;;;;;;22.39;55.91;100753.75;6211880;28;20324;-66
2021/07/05 00:58:55;;;;;;;4.80;4.40;;;;;;;22.32;56.30;100756.84;6213554;28;20237;-65
2021/07/05 01:02:16;;;;;;;4.88;4.57;;;;;;;22.18;56.84;100757.66;6202397;28;20245;-65
2021/07/05 01:05:37;;;;;;;5.07;4.68;;;;;;;22.27;56.81;100754.47;6210757;28;20241;-65
2021/07/05 01:09:00;;;;;;;5.45;4.95;;;;;;;22.33;56.94;100755.91;6205244;28;20615;-65
2021/07/05 01:12:21;;;;;;;4.63;4.32;;;;;;;22.30;56.99;100735.72;6212113;28;20233;-66
2021/07/05 01:15:42;;;;;;;5.55;4.32;;;;;;;22.42;57.09;100739.44;6211401;28;20245;-65
2021/07/05 01:19:03;;;;;;;5.45;5.05;;;;;;;22.32;57.60;100733.00;6212329;28;20229;-65
2021/07/05 01:22:25;;;;;;;5.47;4.97;;;;;;;22.29;57.61;100738.47;6212325;28;20232;-66
2021/07/05 01:25:46;;;;;;;5.40;5.00;;;;;;;22.40;57.12;100738.69;6212834;28;20283;-67
2021/07/05 01:29:07;;;;;;;8.13;5.10;;;;;;;22.47;56.96;100737.38;6211614;28;20251;-65
2021/07/05 01:32:28;;;;;;;6.55;5.97;;;;;;;22.49;56.83;100735.47;6211680;28;20248;-66
2021/07/05 01:35:50;;;;;;;5.88;5.38;;;;;;;22.46;56.77;100733.00;6212927;28;20233;-66
2021/07/05 01:39:12;;;;;;;6.00;5.45;;;;;;;22.34;56.12;100729.28;6209519;28;20251;-66
2021/07/05 01:42:34;;;;;;;6.68;6.07;;;;;;;22.19;56.31;100733.66;6205288;28;20229;-64
2021/07/05 01:45:56;;;;;;;5.32;4.93;;;;;;;22.13;56.48;100726.06;6200107;28;23290;-65
2021/07/05 01:49:17;;;;;;;5.28;4.97;;;;;;;22.09;57.04;100723.72;6210488;28;20253;-66
2021/07/05 01:52:38;;;;;;;5.70;4.90;;;;;;;21.51;58.83;100726.09;6206983;28;20228;-66
2021/07/05 01:56:00;;;;;;;4.50;4.20;;;;;;;21.34;58.84;100731.44;6213591;28;20233;-67
2021/07/05 01:59:21;;;;;;;5.43;5.13;;;;;;;20.91;59.87;100731.16;6210040;28;20913;-66
2021/07/05 02:02:43;;;;;;;5.43;4.93;;;;;;;20.77;60.67;100739.84;6202468;28;20233;-66
2021/07/05 02:06:04;;;;;;;6.35;5.82;;;;;;;20.55;61.47;100734.75;6210813;28;20233;-65
2021/07/05 02:09:25;;;;;;;5.32;4.93;;;;;;;20.95;60.36;100733.53;6205680;28;20225;-66
2021/07/05 02:12:48;;;;;;;6.50;5.22;;;;;;;20.29;62.65;100736.13;6200563;28;20232;-66
2021/07/05 02:16:09;;;;;;;5.72;5.32;;;;;;;20.22;62.96;100744.38;6202665;28;20233;-66
2021/07/05 02:19:30;;;;;;;4.78;4.45;;;;;;;20.16;63.09;100734.09;6207756;28;20233;-66
2021/07/05 02:22:53;;;;;;;4.68;4.35;;;;;;;19.82;65.25;100735.75;6211180;28;20237;-66
2021/07/05 02:26:14;;;;;;;4.50;4.20;;;;;;;19.85;64.99;100737.38;6210350;28;20229;-66
2021/07/05 02:29:36;;;;;;;5.13;4.68;;;;;;;19.80;65.05;100742.91;6192572;28;20244;-66
2021/07/05 02:32:59;;;;;;;4.60;4.28;;;;;;;19.80;65.50;100747.34;6205090;28;20229;-66
2021/07/05 02:36:20;;;;;;;5.53;4.20;;;;;;;19.59;65.97;100730.72;6199039;28;20519;-66
2021/07/05 02:39:43;;;;;;;6.70;4.30;;;;;;;19.94;65.19;100733.44;6195860;28;20774;-65
2021/07/05 02:43:05;;;;;;;4.50;4.13;;;;;;;19.42;67.44;100735.00;6208929;28;21211;-66
2021/07/05 02:46:27;;;;;;;5.28;4.88;;;;;;;19.77;66.77;100727.19;6207508;28;20679;-68
2021/07/05 02:49:48;;;;;;;4.55;4.20;;;;;;;19.68;67.64;100723.19;6206425;28;20324;-67
2021/07/05 02:53:12;;;;;;;4.90;4.50;;;;;;;19.99;66.44;100720.88;6205719;28;20229;-67
2021/07/05 02:56:33;;;;;;;4.90;4.50;;;;;;;20.51;64.59;100723.50;6207550;28;20229;-66
2021/07/05 02:59:56;;;;;;;3.88;3.58;;;;;;;20.41;64.72;100723.13;6211797;28;20225;-67
2021/07/05 03:03:28;;;;;;;;;;;;;;;;;;;;;
2021/07/05 03:06:49;;;;;;;4.20;3.90;;;;;;;19.81;67.53;100744.63;6210269;28;20217;-67
2021/07/05 03:10:13;;;;;;;5.15;4.75;;;;;;;20.03;66.96;100738.28;6206906;28;20234;-66
2021/07/05 03:13:34;;;;;;;6.07;5.55;;;;;;;20.45;65.68;100739.66;6206467;28;20225;-65
2021/07/05 03:16:56;;;;;;;5.07;4.68;;;;;;;19.97;67.59;100743.88;6210223;28;20240;-66
2021/07/05 03:20:21;;;;;;;5.63;5.00;;;;;;;19.86;68.33;100742.59;6210708;28;20320;-67
2021/07/05 03:23:41;;;;;;;6.78;6.00;;;;;;;20.47;66.13;100740.44;6209224;28;20249;-66
2021/07/05 03:27:05;;;;;;;7.45;6.75;;;;;;;20.61;65.73;100745.94;6202728;28;20332;-66
2021/07/05 03:30:28;;;;;;;6.93;6.32;;;;;;;21.02;64.56;100739.38;6221771;28;20605;-65
2021/07/05 03:33:48;;;;;;;10.20;9.30;;;;;;;19.95;69.17;100737.78;6213553;28;20312;-66
2021/07/05 03:37:11;;;;;;;9.85;8.88;;;;;;;20.27;68.33;100737.03;6210507;28;20245;-66
2021/07/05 03:40:34;;;;;;;10.30;9.50;;;;;;;20.80;66.33;100729.06;6201496;28;20232;-65
2021/07/05 03:43:55;;;;;;;12.80;11.80;;;;;;;20.08;68.78;100738.91;6216121;28;20233;-67
2021/07/05 03:47:16;;;;;;;11.02;9.93;;;;;;;20.03;69.52;100741.78;6210276;28;20251;-67
2021/07/05 03:50:39;;;;;;;15.02;13.70;;;;;;;19.63;70.88;100746.31;6209447;28;20772;-67
2021/07/05 03:54:01;;;;;;;14.07;12.98;;;;;;;19.79;70.62;100741.22;6209639;28;20811;-67
2021/07/05 03:57:22;;;;;;;15.00;13.70;;;;;;;19.94;70.61;100729.00;6212544;28;20249;-67
2021/07/05 04:00:43;;;;;;;14.18;12.98;;;;;;;20.06;69.94;100732.84;6191946;28;20225;-67
2021/07/05 04:04:05;;;;;;;13.27;12.18;;;;;;;19.78;71.52;100734.19;6212917;28;20249;-67
2021/07/05 04:07:26;;;;;;;14.43;12.95;;;;;;;19.41;73.14;100735.09;6217005;28;20240;-66
2021/07/05 04:10:49;;;;;;;15.68;14.20;;;;;;;19.82;71.09;100742.84;6191671;28;20234;-66
2021/07/05 04:14:10;;;;;;;16.30;14.80;;;;;;;19.46;72.25;100749.78;6187328;28;20591;-66
2021/07/05 04:17:31;;;;;;;17.50;15.85;;;;;;;19.64;71.71;100747.22;6198117;28;20229;-67
2021/07/05 04:20:53;;;;;;;14.05;12.85;;;;;;;20.02;70.42;100747.97;6204277;28;20229;-67
2021/07/05 04:24:14;;;;;;;19.38;17.73;;;;;;;19.66;71.41;100748.84;6211901;28;20237;-67
2021/07/05 04:27:37;;;;;;;21.23;19.15;;;;;;;19.29;72.38;100757.66;6214133;28;20225;-67
2021/07/05 04:30:58;;;;;;;18.88;17.08;;;;;;;19.51;71.83;100752.19;6209155;28;20592;-66
2021/07/05 04:34:19;;;;;;;15.55;14.20;;;;;;;19.92;69.94;100751.19;6208826;28;20325;-66
2021/07/05 04:37:41;;;;;;;18.52;16.67;;;;;;;19.86;70.12;100753.19;6206160;28;20237;-67
2021/07/05 04:41:04;;;;;;;19.63;17.92;;;;;;;19.90;69.69;100743.31;6208844;28;20409;-67
2021/07/05 04:44:26;;;;;;;19.52;17.83;;;;;;;19.81;70.15;100746.41;6209965;28;20304;-67
2021/07/05 04:47:48;;;;;;;20.33;18.63;;;;;;;19.11;71.63;100743.50;6203438;28;20619;-67
2021/07/05 04:51:12;;;;;;;21.20;19.30;;;;;;;19.58;70.25;100752.75;6191859;28;20227;-66
2021/07/05 04:54:33;;;;;;;18.38;16.88;;;;;;;19.99;69.34;100747.31;6190354;28;20222;-67
2021/07/05 04:57:55;;;;;;;19.95;18.25;;;;;;;19.50;71.07;100747.00;6211764;28;20233;-67
2021/07/05 05:01:17;;;;;;;19.10;17.58;;;;;;;19.25;72.31;100742.84;6208413;28;20237;-66
2021/07/05 05:04:40;;;;;;;20.70;18.95;;;;;;;19.65;70.35;100738.34;6197424;28;20324;-67
2021/07/05 05:08:02;;;;;;;17.35;16.05;;;;;;;19.62;69.86;100738.50;6185918;28;21615;-66
2021/07/05 05:11:23;;;;;;;14.60;13.40;;;;;;;19.93;68.80;100743.19;6209530;28;20229;-66
2021/07/05 05:14:46;;;;;;;17.45;15.85;;;;;;;19.52;70.80;100743.34;6212677;28;20660;-66
2021/07/05 05:18:08;;;;;;;21.50;19.88;;;;;;;19.60;70.02;100740.34;6211729;28;20240;-67
2021/07/05 05:21:29;;;;;;;22.05;20.02;;;;;;;19.19;71.97;100738.75;6187380;28;20237;-67
2021/07/05 05:24:50;;;;;;;18.83;16.13;;;;;;;19.68;69.44;100735.56;6205959;28;20257;-65
2021/07/05 05:28:11;;;;;;;16.40;14.70;;;;;;;19.94;67.78;100733.44;6208063;28;20367;-66
2021/07/05 05:31:34;;;;;;;16.23;14.85;;;;;;;19.19;70.48;100740.50;6208173;28;20229;-66
2021/07/05 05:34:56;;;;;;;17.77;15.07;;;;;;;19.42;68.74;100748.19;6212133;28;20225;-67
2021/07/05 05:38:17;;;;;;;14.93;13.73;;;;;;;19.72;68.47;100745.06;6209578;28;20225;-66
2021/07/05 05:41:38;;;;;;;16.27;14.73;;;;;;;18.52;73.26;100761.03;6196295;28;20229;-67
2021/07/05 05:44:59;;;;;;;14.68;13.25;;;;;;;18.53;73.02;100757.44;6202929;28;20323;-48
2021/07/05 05:48:20;;;;;;;15.60;14.32;;;;;;;18.87;71.54;100751.59;6207702;28;20229;-46
2021/07/05 05:51:42;;;;;;;14.73;13.48;;;;;;;18.64;72.11;100760.50;6208920;28;20242;-49
2021/07/05 05:55:04;;;;;;;15.55;14.15;;;;;;;18.56;72.09;100765.25;6207214;28;20263;-51
2021/07/05 05:58:25;;;;;;;15.80;14.20;;;;;;;18.77;71.30;100757.34;6201657;28;20238;-48
2021/07/05 06:01:49;;;;;;;13.80;12.80;;;;;;;18.93;69.89;100750.47;6208185;28;20241;-51
2021/07/05 06:05:10;;;;;;;13.20;12.15;;;;;;;18.77;69.79;100752.06;6213417;28;20237;-52
2021/07/05 06:08:33;;;;;;;13.50;12.27;;;;;;;19.26;68.78;100755.13;6208876;28;20260;-47
2021/07/05 06:11:54;;;;;;;15.40;14.00;;;;;;;18.61;71.52;100755.38;6202695;28;20232;-52
2021/07/05 06:15:16;;;;;;;15.05;13.65;;;;;;;18.86;71.28;100765.72;6211579;28;20233;-52
2021/07/05 06:18:38;;;;;;;14.05;12.77;;;;;;;18.66;72.30;100766.56;6189198;28;20233;-53
2021/07/05 06:21:59;;;;;;;15.23;13.77;;;;;;;18.70;72.04;100765.50;6209225;28;20233;-50
2021/07/05 06:25:21;;;;;;;14.82;13.30;;;;;;;18.86;71.61;100755.19;6199216;28;20507;-48
2021/07/05 06:28:42;;;;;;;13.80;12.52;;;;;;;18.98;71.24;100764.31;6204928;28;20954;-46
2021/07/05 06:32:04;;;;;;;13.18;12.18;;;;;;;19.11;69.53;100763.75;6214120;28;20260;-48
2021/07/05 06:35:25;;;;;;;10.98;10.00;;;;;;;18.99;69.32;100752.81;6197862;28;20221;-53
2021/07/05 06:38:47;;;;;;;11.90;10.90;;;;;;;18.76;70.15;100766.16;6207444;28;20261;-55
2021/07/05 06:42:09;;;;;;;11.10;10.20;;;;;;;19.33;68.23;100763.63;6208398;28;20225;-49
2021/07/05 06:45:31;;;;;;;13.05;11.93;;;;;;;18.63;71.58;100768.47;6208637;28;20237;-52
2021/07/05 06:48:52;;;;;;;12.88;11.85;;;;;;;18.87;70.87;100767.44;6191840;28;20252;-49
2021/07/05 06:52:13;;;;;;;12.07;11.07;;;;;;;18.70;69.73;100765.50;6218183;28;20241;-51
2021/07/05 06:55:34;;;;;;;13.02;11.82;;;;;;;19.13;69.34;100752.19;6209195;28;20233;-52
2021/07/05 06:58:56;;;;;;;12.77;11.20;;;;;;;19.22;68.52;100761.50;6206642;28;20229;-47
2021/07/05 07:02:17;;;;;;;12.30;11.15;;;;;;;18.76;69.71;100768.78;6201632;28;20514;-50
2021/07/05 07:05:38;;;;;;;12.38;11.27;;;;;;;18.61;70.60;100760.63;6215100;28;20630;-51
2021/07/05 07:08:59;;;;;;;11.05;10.15;;;;;;;19.00;68.16;100746.63;6210861;28;20257;-53
2021/07/05 07:12:20;;;;;;;12.32;11.23;;;;;;;18.85;68.24;100763.16;6216086;28;20225;-48
2021/07/05 07:15:46;;;;;;;12.65;11.45;;;;;;;18.34;68.76;100767.94;6209751;28;20257;-51
2021/07/05 07:19:19;;;;;;;11.48;10.57;;;;;;;18.96;67.48;100765.28;6210922;28;20626;-52
2021/07/05 07:22:40;;;;;;;13.10;11.68;;;;;;;19.66;65.46;100755.91;6215388;28;20623;-48
2021/07/05 07:26:01;;;;;;;12.43;11.38;;;;;;;19.55;66.47;100747.63;6211849;28;20236;-51
2021/07/05 07:29:22;;;;;;;13.10;11.82;;;;;;;19.99;64.31;100744.66;6208805;28;20241;-52
2021/07/05 07:32:45;;;;;;;9.73;8.93;;;;;;;20.29;62.79;100736.13;6199648;28;20233;-48
2021/07/05 07:36:06;;;;;;;13.02;11.77;;;;;;;19.53;63.38;100736.28;6206272;28;20233;-48
2021/07/05 07:39:31;;;;;;;11.98;10.80;;;;;;;20.04;62.69;100732.91;6212096;28;20611;-46
2021/07/05 07:42:52;;;;;;;10.77;9.93;;;;;;;20.48;61.28;100734.22;6214712;28;20225;-52
2021/07/05 07:46:13;;;;;;;12.95;11.98;;;;;;;19.06;65.54;100735.78;6199519;28;20235;-51
2021/07/05 07:49:35;;;;;;;11.65;10.73;;;;;;;19.71;64.42;100737.19;6210659;28;20233;-51
2021/07/05 07:52:57;;;;;;;12.35;11.35;;;;;;;20.31;62.15;100743.03;6212421;28;20264;-46
2021/07/05 07:56:18;;;;;;;14.20;13.02;;;;;;;19.67;63.78;100742.59;6211866;28;20221;-48
2021/07/05 07:59:39;;;;;;;14.48;13.25;;;;;;;20.01;62.58;100740.16;6212386;28;20949;-48
2021/07/05 08:03:00;;;;;;;14.32;13.20;;;;;;;19.43;64.21;100747.28;6217593;28;20228;-54
2021/07/05 08:06:23;;;;;;;13.52;12.38;;;;;;;19.93;62.91;100743.19;6217711;28;20532;-51
2021/07/05 08:09:44;;;;;;;13.77;12.68;;;;;;;20.04;62.63;100734.69;6209537;28;20241;-52
2021/07/05 08:13:05;;;;;;;11.57;10.68;;;;;;;20.16;61.07;100731.47;6210315;28;20238;-46
2021/07/05 08:16:26;;;;;;;11.95;10.95;;;;;;;20.19;61.04;100718.06;6207803;28;20225;-51
2021/07/05 08:19:47;;;;;;;11.60;10.70;;;;;;;20.64;59.98;100716.66;6214651;28;20241;-52
2021/07/05 08:23:09;;;;;;;11.20;10.25;;;;;;;20.24;60.49;100717.84;6210974;28;20235;-51
2021/07/05 08:26:31;;;;;;;12.40;11.45;;;;;;;21.09;58.50;100713.41;6216201;28;20229;-50
2021/07/05 08:29:53;;;;;;;10.48;9.45;;;;;;;21.14;58.73;100721.97;6203925;28;20237;-51
2021/07/05 08:33:13;;;;;;;11.68;10.63;;;;;;;20.98;59.10;100717.50;6216507;28;20998;-46
2021/07/05 08:36:36;;;;;;;8.68;7.82;;;;;;;22.15;55.54;100718.03;6209315;28;20233;-52
2021/07/05 08:39:58;;;;;;;11.43;10.52;;;;;;;20.83;59.05;100721.81;6209320;28;20798;-49
2021/07/05 08:43:25;;;;;;;10.05;9.27;;;;;;;21.01;58.94;100721.78;6202861;28;20257;-50
2021/07/05 08:46:47;;;;;;;10.68;9.65;;;;;;;20.44;60.43;100736.19;6209146;28;20244;-49
2021/07/05 08:50:11;;;;;;;9.45;8.65;;;;;;;20.61;58.93;100729.22;6204730;28;20257;-45
2021/07/05 08:53:32;;;;;;;9.38;8.52;;;;;;;20.73;58.23;100730.34;6203398;28;20671;-49
2021/07/05 08:56:54;;;;;;;8.38;7.68;;;;;;;20.88;58.26;100733.94;6211766;28;20857;-49
2021/07/05 09:00:19;;;;;;;9.55;7.88;;;;;;;20.81;57.92;100733.44;6204733;28;20232;-52
2021/07/05 09:03:40;;;;;;;12.20;11.07;;;;;;;20.56;59.29;100739.97;6213322;28;20225;-51
2021/07/05 09:07:03;;;;;;;11.63;10.63;;;;;;;20.74;58.17;100735.53;6213035;28;20229;-49
2021/07/05 09:10:25;;;;;;;11.05;9.95;;;;;;;20.98;58.24;100730.75;6208483;28;20241;-47
2021/07/05 09:13:52;;;;;;;8.98;8.27;;;;;;;22.19;54.95;100735.47;6206232;28;20233;-51
2021/07/05 09:17:13;;;;;;;11.68;10.68;;;;;;;20.94;57.44;100723.91;6208552;28;20233;-51
2021/07/05 09:20:34;;;;;;;9.10;8.27;;;;;;;22.38;53.22;100729.97;6207444;28;20230;-52
2021/07/05 09:23:58;;;;;;;6.40;5.80;;;;;;;23.23;52.33;100725.66;6208017;28;20233;-46
2021/07/05 09:27:23;;;;;;;9.65;8.85;;;;;;;23.78;50.81;100735.38;6209862;28;20320;-48
2021/07/05 09:30:47;;;;;;;11.35;10.45;;;;;;;21.80;55.25;100743.00;6209377;28;20241;-50
2021/07/05 09:34:17;;;;;;;9.45;8.73;;;;;;;22.34;53.71;100739.06;6204828;28;20487;-52
2021/07/05 09:37:52;;;;;;;10.18;9.23;;;;;;;23.77;49.44;100728.34;6213071;28;20233;-52
2021/07/05 09:41:19;;;;;;;10.32;9.52;;;;;;;23.59;49.30;100721.56;6209239;28;20236;-49
2021/07/05 09:44:44;;;;;;;8.85;8.15;;;;;;;24.02;48.58;100728.53;6209366;28;20671;-50
2021/07/05 09:48:14;;;;;;;8.50;7.78;;;;;;;24.99;47.96;100729.88;6204507;28;20244;-51
2021/07/05 09:51:36;;;;;;;10.82;10.07;;;;;;;22.65;52.15;100737.22;6206268;28;20237;-51
2021/07/05 09:54:59;;;;;;;11.18;10.45;;;;;;;22.41;52.84;100735.94;6208789;28;20233;-49
2021/07/05 09:58:31;;;;;;;9.48;8.48;;;;;;;22.73;52.29;100735.78;6185297;28;20325;-52
2021/07/05 10:01:53;;;;;;;8.43;7.65;;;;;;;22.74;53.27;100739.28;6199433;28;20237;-46
2021/07/05 10:05:17;;;;;;;9.30;8.48;;;;;;;23.46;50.18;100739.25;6186440;28;20615;-51
2021/07/05 10:08:38;;;;;;;7.88;7.43;;;;;;;22.35;52.02;100738.97;6188181;28;20233;-48
2021/07/05 10:12:16;;;;;;;9.07;7.75;;;;;;;22.98;51.00;100718.34;6207486;28;20240;-52
2021/07/05 10:15:38;;;;;;;7.05;6.45;;;;;;;23.78;48.60;100732.72;6209115;28;20233;-54
2021/07/05 10:18:59;;;;;;;7.30;6.80;;;;;;;22.60;51.22;100741.00;6207098;28;20505;-49
2021/07/05 10:22:22;;;;;;;8.85;8.25;;;;;;;22.10;52.27;100743.97;6201755;28;20590;-46
2021/07/05 10:25:45;;;;;;;9.05;8.10;;;;;;;22.29;51.85;100749.06;6200071;28;20237;-50
2021/07/05 10:29:07;;;;;;;9.05;8.35;;;;;;;22.20;51.96;100740.69;6202448;28;20232;-49
2021/07/05 10:32:28;;;;;;;8.23;7.22;;;;;;;22.55;52.17;100740.41;6191969;28;20237;-61
2021/07/05 10:35:51;;;;;;;7.93;7.25;;;;;;;23.54;49.09;100742.28;6203364;28;20230;-51
2021/07/05 10:39:17;;;;;;;9.20;8.50;;;;;;;22.23;52.27;100756.41;6206381;28;20603;-49
2021/07/05 10:42:39;;;;;;;8.65;7.97;;;;;;;22.27;51.95;100757.13;6209553;28;20233;-49
2021/07/05 10:46:02;;;;;;;7.55;6.85;;;;;;;22.91;50.32;100754.19;6213431;28;20315;-48
2021/07/05 10:49:50;;;;;;;7.47;6.88;;;;;;;22.75;50.43;100754.28;6213877;28;20229;-48
2021/07/05 10:53:12;;;;;;;6.53;6.03;;;;;;;24.04;47.99;100747.91;6215846;28;20229;-49
2021/07/05 10:56:41;;;;;;;6.50;6.00;;;;;;;23.35;49.10;100747.91;6214514;28;20238;-49
2021/07/05 11:00:09;;;;;;;7.18;6.65;;;;;;;22.59;51.06;100757.84;6213129;28;20240;-51
2021/07/05 11:03:47;;;;;;;5.43;5.03;;;;;;;22.83;49.55;100748.50;6216144;28;20240;-51
2021/07/05 11:07:14;;;;;;;5.55;5.07;;;;;;;22.75;48.48;100759.59;6204700;28;20237;-49
2021/07/05 11:10:35;;;;;;;5.22;4.72;;;;;;;21.78;50.25;100744.88;6211495;28;20233;-51
2021/07/05 11:14:26;;;;;;;4.60;4.20;;;;;;;22.89;47.75;100737.50;6215327;28;20233;-53
2021/07/05 11:17:47;;;;;;;4.32;3.97;;;;;;;22.76;48.22;100742.69;6195759;28;20241;-47
2021/07/05 11:21:10;;;;;;;4.53;4.22;;;;;;;23.32;47.24;100742.78;6214872;28;20241;-51
2021/07/05 11:24:36;;;;;;;4.80;4.40;;;;;;;22.36;49.37;100745.97;6217885;28;20229;-49
2021/07/05 11:27:59;;;;;;;5.05;4.65;;;;;;;22.74;49.08;100740.16;6214069;28;20606;-49
2021/07/05 11:31:22;;;;;;;4.60;4.30;;;;;;;23.92;46.19;100733.59;6213461;28;20229;-50
2021/07/05 11:34:47;;;;;;;4.75;4.45;;;;;;;24.32;45.65;100728.28;6201747;28;20244;-50
2021/07/05 11:38:12;;;;;;;4.72;4.38;;;;;;;23.32;46.87;100737.47;6214112;28;20325;-51
2021/07/05 11:41:33;;;;;;;5.25;4.95;;;;;;;23.22;47.66;100734.53;6210952;28;20248;-50
2021/07/05 11:44:56;;;;;;;4.10;3.80;;;;;;;24.40;44.83;100733.06;6210540;28;20519;-47
2021/07/05 11:48:54;;;;;;;4.15;3.83;;;;;;;23.45;46.63;100737.56;6209122;28;20320;-50
2021/07/05 11:52:15;;;;;;;4.93;3.45;;;;;;;23.85;45.42;100742.97;6190533;28;20373;-49
2021/07/05 11:55:36;;;;;;;3.05;2.85;;;;;;;24.03;45.06;100738.22;6209931;28;20225;-48
2021/07/05 11:58:58;;;;;;;2.50;2.40;;;;;;;23.34;46.64;100747.06;6212926;28;20233;-50
2021/07/05 12:02:19;;;;;;;3.80;3.58;;;;;;;22.75;48.19;100743.66;6208612;28;20990;-50
2021/07/05 12:05:57;;;;;;;3.53;3.22;;;;;;;23.26;47.69;100738.72;6209748;28;20249;-51
2021/07/05 12:09:18;;;;;;;3.60;3.33;;;;;;;23.67;47.13;100740.53;6216094;28;20528;-50
2021/07/05 12:12:40;;;;;;;4.43;4.03;;;;;;;23.78;46.87;100738.03;6197720;28;20631;-51
2021/07/05 12:16:04;;;;;;;3.90;3.60;;;;;;;23.27;47.55;100736.94;6214483;28;20229;-47
2021/07/05 12:19:27;;;;;;;4.70;4.38;;;;;;;22.76;49.13;100742.69;6213408;28;20537;-46
2021/07/05 12:22:49;;;;;;;4.13;3.65;;;;;;;22.76;49.28;100738.25;6186906;28;20244;-48
2021/07/05 12:26:15;;;;;;;5.75;3.95;;;;;;;22.87;48.94;100732.28;6207539;28;20332;-48
2021/07/05 12:29:39;;;;;;;3.47;3.10;;;;;;;22.83;50.07;100728.09;6203123;28;20233;-51
2021/07/05 12:33:05;;;;;;;3.53;3.22;;;;;;;23.00;50.49;100730.56;6193594;28;20835;-52
2021/07/05 12:36:26;;;;;;;4.25;3.95;;;;;;;22.42;52.61;100739.44;6184226;28;20245;-49
2021/07/05 12:39:53;;;;;;;4.60;4.20;;;;;;;22.92;51.57;100732.84;6184409;28;20230;-45
2021/07/05 12:43:14;;;;;;;5.13;4.55;;;;;;;21.53;55.66;100747.22;6205944;28;20595;-48
2021/07/05 12:46:35;;;;;;;6.78;4.43;;;;;;;21.60;56.78;100745.94;6187145;28;20229;-52
2021/07/05 12:49:58;;;;;;;8.85;5.30;;;;;;;21.38;59.67;100756.81;6206487;28;20229;-53
2021/07/05 12:53:21;;;;;;;4.95;4.63;;;;;;;21.02;62.45;100769.34;6209646;28;20241;-50
2021/07/05 12:56:44;;;;;;;5.35;4.72;;;;;;;20.79;64.03;100764.41;6207152;28;20323;-51
2021/07/05 13:00:08;;;;;;;4.30;4.10;;;;;;;21.34;62.96;100771.19;6200585;28;20229;-49
2021/07/05 13:03:29;;;;;;;2.20;2.08;;;;;;;20.45;62.24;100788.16;6208324;28;20312;-48
2021/07/05 13:07:00;;;;;;;7.03;1.50;;;;;;;19.73;63.66;100799.59;6203883;28;20228;-50
2021/07/05 13:10:28;;;;;;;1.75;1.63;;;;;;;19.73;65.70;100793.47;6211691;28;20619;-48
2021/07/05 13:13:50;;;;;;;2.85;1.88;;;;;;;20.53;64.09;100794.81;6206909;28;20232;-50
2021/07/05 13:17:13;;;;;;;2.80;2.20;;;;;;;20.16;64.71;100792.25;6208708;28;20756;-49
2021/07/05 13:20:37;;;;;;;3.40;2.40;;;;;;;20.51;64.13;100802.88;6210818;28;20244;-50
2021/07/05 13:23:58;;;;;;;2.47;1.75;;;;;;;20.54;63.56;100796.56;6205014;28;20319;-50
2021/07/05 13:27:22;;;;;;;3.25;2.15;;;;;;;20.42;64.76;100805.97;6208408;28;20225;-46
2021/07/05 13:30:44;;;;;;;2.53;2.10;;;;;;;19.63;67.56;100798.31;6212542;28;20225;-52
2021/07/05 13:34:30;;;;;;;2.30;1.55;;;;;;;20.44;65.41;100812.03;6207855;28;20324;-52
2021/07/05 13:37:51;;;;;;;2.90;2.65;;;;;;;19.91;66.75;100815.50;6206442;28;20334;-48
2021/07/05 13:41:14;;;;;;;2.25;2.05;;;;;;;19.44;67.71;100814.16;6206410;28;20237;-51
2021/07/05 13:44:36;;;;;;;2.25;1.90;;;;;;;19.98;66.43;100820.44;6209481;28;20507;-48
2021/07/05 13:48:01;;;;;;;4.72;2.90;;;;;;;20.14;66.36;100820.56;6210431;28;20233;-50
2021/07/05 13:51:22;;;;;;;5.05;2.58;;;;;;;21.08;63.70;100820.28;6210422;28;20229;-46
2021/07/05 13:54:42;;;;;;;3.58;2.35;;;;;;;21.56;61.68;100808.84;6210414;28;20233;-53
2021/07/05 13:58:06;;;;;;;1.67;1.55;;;;;;;21.89;59.97;100825.56;6207845;28;20328;-46
2021/07/05 14:01:29;;;;;;;2.30;1.52;;;;;;;22.54;57.97;100828.06;6209384;28;20253;-50
2021/07/05 14:04:51;;;;;;;1.45;1.23;;;;;;;23.16;55.97;100825.25;6207796;28;20340;-49
2021/07/05 14:08:13;;;;;;;2.60;1.40;;;;;;;23.27;56.19;100829.91;6208447;28;20240;-50
2021/07/05 14:11:33;;;;;;;1.73;1.52;;;;;;;22.86;56.06;100823.50;6214385;28;20468;-52
2021/07/05 14:14:54;;;;;;;1.33;1.23;;;;;;;22.45;57.20;100823.28;6209868;28;20265;-53
2021/07/05 14:18:16;;;;;;;1.35;1.00;;;;;;;22.42;56.68;100834.97;6212288;28;20220;-52
2021/07/05 14:21:38;;;;;;;1.20;1.10;;;;;;;22.02;57.54;100835.44;6209538;28;20241;-53
2021/07/05 14:24:59;;;;;;;1.80;1.23;;;;;;;22.20;57.19;100837.97;6209921;28;20233;-52
2021/07/05 14:28:20;;;;;;;1.90;1.17;;;;;;;21.85;59.36;100830.22;6207765;28;20233;-51
2021/07/05 14:31:41;;;;;;;1.98;1.80;;;;;;;21.93;58.80;100828.00;6205962;28;20810;-49
2021/07/05 14:35:03;;;;;;;2.92;2.72;;;;;;;22.39;57.45;100824.50;6209770;28;20728;-52
2021/07/05 14:38:26;;;;;;;4.65;4.25;;;;;;;22.76;56.13;100822.31;6201002;28;20221;-49
2021/07/05 14:41:47;;;;;;;2.97;2.65;;;;;;;22.95;56.20;100820.28;6200405;28;20233;-51
2021/07/05 14:45:10;;;;;;;2.60;2.42;;;;;;;23.80;54.25;100814.19;6207608;28;20319;-54
2021/07/05 14:48:31;;;;;;;3.67;2.22;;;;;;;24.46;53.02;100805.34;6205175;28;20225;-52
2021/07/05 14:51:52;;;;;;;2.00;1.90;;;;;;;24.72;51.45;100814.28;6192513;28;20241;-48
2021/07/05 14:55:16;;;;;;;2.85;2.10;;;;;;;25.12;49.87;100800.00;6203990;28;20233;-55
2021/07/05 14:58:38;;;;;;;2.17;1.98;;;;;;;24.43;49.82;100808.25;6203942;28;20233;-49
2021/07/05 15:01:59;;;;;;;2.45;1.80;;;;;;;23.72;51.10;100815.50;6201833;28;20241;-53
2021/07/05 15:05:21;;;;;;;2.33;1.67;;;;;;;23.26;52.37;100815.75;6196541;28;20469;-52
2021/07/05 15:08:42;;;;;;;1.83;1.73;;;;;;;24.08;51.44;100813.22;6207238;28;20233;-52
2021/07/05 15:12:05;;;;;;;1.55;1.45;;;;;;;24.47;49.77;100809.75;6208425;28;20411;-50
2021/07/05 15:15:27;;;;;;;1.65;1.52;;;;;;;24.81;49.05;100807.44;6206840;28;20536;-52
2021/07/05 15:18:48;;;;;;;1.80;1.70;;;;;;;24.53;48.21;100804.03;6207385;28;20244;-54
2021/07/05 15:22:09;;;;;;;2.38;2.17;;;;;;;25.33;48.63;100803.81;6200113;28;20686;-51
2021/07/05 15:25:31;;;;;;;2.40;2.20;;;;;;;25.04;47.81;100813.00;6216381;28;20217;-52
2021/07/05 15:28:53;;;;;;;4.28;3.25;;;;;;;25.14;46.64;100798.94;6205335;28;20230;-51
2021/07/05 15:32:14;;;;;;;3.45;3.25;;;;;;;25.38;47.11;100805.31;6208978;28;20245;-51
2021/07/05 15:35:35;;;;;;;2.55;2.35;;;;;;;25.98;45.42;100814.31;6206671;28;20228;-49
2021/07/05 15:38:56;;;;;;;3.53;3.33;;;;;;;25.88;45.29;100808.78;6204937;28;20679;-48